Terminal Aerodrome Forecast
Issued by NWS

Home | Current Version | Previous Version | Text Only | Print | Product List | Glossary On
Versions: 1 2 3 4 5 6 7 8 9 10 11 12 13 14 15
000
FTUS42 KJAX 181747
TAFVQQ
TAF
KVQQ 181747Z 1818/1918 23006KT P6SM SCT020 BKN035
     FM182000 21003KT 4SM BR BKN010 OVC020
     FM190600 26003KT 1/2SM FG OVC002
     FM191400 27004KT 4SM BR BKN006
     FM191600 26006KT P6SM BKN015=

USA.gov is the U.S. government's official web portal to all federal, state and local government web resources and services.